Eggleston, Virginia
Current Conditions -  °F | °C
As of 12:55 PM on Saturday 22 Nov 2014 (Local Time) from KPSK Reporting Station
Clear Clear  
Wind Chill: 49°   Ceiling: Unl
Heat Index: 49°   Visibility: 10mi
Dew Point: 17°   Wind: 3mph
Humidity: 27%   Direction: 230°SW
Pressure: 30.36"   Gusts: NA
Location:  37.29°N, 80.62°W
Report Text: KPSK 221755Z AUTO 23003KT 10SM CLR 10/M08 A3036 RMK AO2 T00971084 10097 21072
Loading
Personal Weather Stations






























Interactive Weather Map New forecast layout! Learn more

10-Day Weather Forecast

Advertisements
Track Severe Weather on mobile